createdAt,value
2023-04-22T00:01:35.138Z,99821.75
2023-04-22T00:04:03.166Z,99820.94
2023-04-22T00:06:32.066Z,99818.53
2023-04-22T00:08:59.874Z,99811.63
2023-04-22T00:11:29.041Z,99807.91
2023-04-22T00:13:57.428Z,99805.50
2023-04-22T00:16:26.248Z,99806.56
2023-04-22T00:18:54.122Z,99804.91
2023-04-22T00:21:22.583Z,99803.31
2023-04-22T00:23:50.369Z,99803.53
2023-04-22T00:26:18.195Z,99801.94
2023-04-22T00:28:47.886Z,99806.44
2023-04-22T00:31:15.467Z,99802.03
2023-04-22T00:33:43.436Z,99790.97
2023-04-22T00:36:11.775Z,99794.19
2023-04-22T00:38:39.642Z,99789.38
2023-04-22T00:41:08.198Z,99802.84
2023-04-22T00:43:36.612Z,99802.28
2023-04-22T00:46:06.088Z,99797.78
2023-04-22T00:48:34.162Z,99804.56
2023-04-22T00:51:02.619Z,99796.63
2023-04-22T00:53:30.441Z,99796.03
2023-04-22T00:55:58.387Z,99798.09
2023-04-22T00:58:29.590Z,99796.50
2023-04-22T01:00:58.002Z,99791.88
2023-04-22T01:03:31.019Z,99783.94
2023-04-22T01:05:59.218Z,99787.84
2023-04-22T01:08:32.903Z,99788.91
2023-04-22T01:11:01.235Z,99783.44
2023-04-22T01:13:30.543Z,99782.84
2023-04-22T01:16:00.408Z,99786.53
2023-04-22T01:18:29.626Z,99784.94
2023-04-22T01:20:57.596Z,99778.47
2023-04-22T01:23:27.628Z,99782.16
2023-04-22T01:25:56.065Z,99785.25
2023-04-22T01:28:24.833Z,99779.41
2023-04-22T01:30:53.917Z,99776.16
2023-04-22T01:33:21.826Z,99779.84
2023-04-22T01:35:49.643Z,99767.06
2023-04-22T01:38:18.030Z,99774.19
2023-04-22T01:40:47.186Z,99760.38
2023-04-22T01:43:14.997Z,99768.75
2023-04-22T01:45:44.049Z,99762.09
2023-04-22T01:48:12.211Z,99770.28
2023-04-22T01:50:40.076Z,99775.22
2023-04-22T01:53:09.599Z,99761.41
2023-04-22T01:55:37.652Z,99766.34
2023-04-22T01:58:06.870Z,99763.91
2023-04-22T02:00:35.287Z,99759.88
2023-04-22T02:03:03.288Z,99761.34
2023-04-22T02:05:31.241Z,99771.38
2023-04-22T02:07:59.669Z,99774.25
2023-04-22T02:10:27.492Z,99775.50
2023-04-22T02:12:55.352Z,99777.59
2023-04-22T02:15:25.146Z,99775.16
2023-04-22T02:17:53.044Z,99773.78
2023-04-22T02:20:20.875Z,99781.72
2023-04-22T02:22:49.407Z,99781.13
2023-04-22T02:25:17.623Z,99782.97
2023-04-22T02:27:45.464Z,99780.56
2023-04-22T02:30:13.972Z,99772.03
2023-04-22T02:32:43.206Z,99766.75
2023-04-22T02:35:12.302Z,99770.41
2023-04-22T02:37:40.956Z,99765.09
2023-04-22T02:40:09.876Z,99765.09
2023-04-22T02:42:37.700Z,99757.97
2023-04-22T02:45:07.028Z,99749.22
2023-04-22T02:47:34.874Z,99741.50
2023-04-22T02:50:04.144Z,99739.66
2023-04-22T02:52:32.512Z,99739.09
2023-04-22T02:55:00.529Z,99734.00
2023-04-22T02:57:28.458Z,99725.25
2023-04-22T02:59:57.653Z,99721.00
2023-04-22T03:02:25.596Z,99717.53
2023-04-22T03:04:54.421Z,99720.19
2023-04-22T03:07:23.637Z,99715.13
2023-04-22T03:09:51.441Z,99711.88
2023-04-22T03:12:19.235Z,99714.19
2023-04-22T03:14:47.618Z,99703.81
2023-04-22T03:17:15.407Z,99700.81
2023-04-22T03:19:43.750Z,99708.78
2023-04-22T03:22:12.290Z,99699.66
2023-04-22T03:24:41.450Z,99699.41
2023-04-22T03:27:10.550Z,99696.22
2023-04-22T03:29:39.035Z,99697.22
2023-04-22T03:32:07.091Z,99688.47
2023-04-22T03:34:37.102Z,99694.00
2023-04-22T03:37:05.708Z,99702.19
2023-04-22T03:39:33.464Z,99699.53
2023-04-22T03:42:02.669Z,99703.78
2023-04-22T03:44:30.788Z,99684.44
2023-04-22T03:46:58.572Z,99695.84
2023-04-22T03:49:27.125Z,99696.88
2023-04-22T03:51:55.520Z,99694.22
2023-04-22T03:54:23.291Z,99689.13
2023-04-22T03:56:51.067Z,99691.78
2023-04-22T03:59:21.050Z,99693.44
2023-04-22T04:01:48.874Z,99690.19
2023-04-22T04:04:17.068Z,99681.44
2023-04-22T04:06:45.550Z,99687.78
2023-04-22T04:09:13.417Z,99688.81
2023-04-22T04:11:41.218Z,99678.22
2023-04-22T04:14:10.250Z,99681.66
2023-04-22T04:16:39.406Z,99671.88
2023-04-22T04:19:07.413Z,99675.56
2023-04-22T04:21:35.609Z,99673.13
2023-04-22T04:24:04.257Z,99658.09
2023-04-22T04:26:32.530Z,99677.63
2023-04-22T04:29:02.184Z,99674.41
2023-04-22T04:31:29.806Z,99677.19
2023-04-22T04:33:59.017Z,99680.88
2023-04-22T04:36:29.634Z,99686.59
2023-04-22T04:38:57.391Z,99677.50
2023-04-22T04:41:27.004Z,99670.81
2023-04-22T04:43:55.052Z,99667.50
2023-04-22T04:46:23.520Z,99669.78
2023-04-22T04:48:53.960Z,99652.53
2023-04-22T04:51:23.708Z,99659.88
2023-04-22T04:53:51.376Z,99657.81
2023-04-22T04:56:19.160Z,99644.00
2023-04-22T04:58:47.404Z,99651.38
2023-04-22T05:01:15.233Z,99649.72
2023-04-22T05:03:43.153Z,99649.97
2023-04-22T05:06:11.915Z,99645.47
2023-04-22T05:08:41.094Z,99655.84
2023-04-22T05:11:08.897Z,99654.81
2023-04-22T05:13:37.240Z,99654.56
2023-04-22T05:16:05.322Z,99657.81
2023-04-22T05:18:33.177Z,99661.03
2023-04-22T05:21:01.475Z,99666.91
2023-04-22T05:23:30.047Z,99657.72
2023-04-22T05:25:59.438Z,99651.97
2023-04-22T05:28:27.773Z,99652.56
2023-04-22T05:30:55.572Z,99658.41
2023-04-22T05:33:23.396Z,99649.22
2023-04-22T05:35:52.838Z,99648.19
2023-04-22T05:38:20.636Z,99641.63
2023-04-22T05:40:48.498Z,99645.91
2023-04-22T05:43:18.523Z,99654.19
2023-04-22T05:45:46.379Z,99654.97
2023-04-22T05:48:14.153Z,99661.69
2023-04-22T05:50:42.526Z,99656.16
2023-04-22T05:53:10.303Z,99652.25
2023-04-22T05:55:38.122Z,99649.38
2023-04-22T05:58:06.505Z,99653.63
2023-04-22T06:00:35.702Z,99661.69
2023-04-22T06:03:03.775Z,99660.44
2023-04-22T06:05:32.335Z,99659.97
2023-04-22T06:08:00.355Z,99657.44
2023-04-22T06:10:28.201Z,99657.00
2023-04-22T06:12:56.510Z,99662.19
2023-04-22T06:15:24.287Z,99675.34
2023-04-22T06:17:53.486Z,99673.59
2023-04-22T06:20:21.826Z,99660.72
2023-04-22T06:22:49.614Z,99658.38
2023-04-22T06:25:17.593Z,99650.00
2023-04-22T06:27:46.249Z,99638.59
2023-04-22T06:30:14.604Z,99635.25
2023-04-22T06:32:42.396Z,99650.44
2023-04-22T06:35:12.377Z,99654.81
2023-04-22T06:37:40.236Z,99631.31
2023-04-22T06:40:09.345Z,99626.91
2023-04-22T06:42:37.874Z,99628.66
2023-04-22T06:45:06.408Z,99635.69
2023-04-22T06:47:34.353Z,99628.06
2023-04-22T06:50:03.787Z,99627.94
2023-04-22T06:52:32.942Z,99642.91
2023-04-22T06:55:00.802Z,99637.13
2023-04-22T06:57:29.157Z,99645.44
2023-04-22T06:59:57.038Z,99634.94
2023-04-22T07:02:24.917Z,99636.03
2023-04-22T07:04:53.387Z,99634.78
2023-04-22T07:07:21.578Z,99629.56
2023-04-22T07:09:50.745Z,99632.31
2023-04-22T07:12:19.217Z,99626.31
2023-04-22T07:14:47.887Z,99619.25
2023-04-22T07:17:15.762Z,99613.78
2023-04-22T07:19:44.192Z,99597.72
2023-04-22T07:22:12.196Z,99597.81
2023-04-22T07:24:40.923Z,99606.66
2023-04-22T07:27:10.525Z,99595.06
2023-04-22T07:29:38.271Z,99590.31
2023-04-22T07:32:06.609Z,99592.25
2023-04-22T07:34:35.127Z,99552.41
2023-04-22T07:37:03.071Z,99542.22
2023-04-22T07:39:30.859Z,99556.84
2023-04-22T07:41:59.157Z,99554.78
2023-04-22T07:44:28.309Z,99572.63
2023-04-22T07:46:56.258Z,99580.59
2023-04-22T07:49:24.661Z,99579.84
2023-04-22T07:51:52.687Z,99577.53
2023-04-22T07:54:20.479Z,99576.00
2023-04-22T07:56:48.923Z,99587.75
2023-04-22T07:59:16.709Z,99592.91
2023-04-22T08:01:47.063Z,99606.88
2023-04-22T08:04:15.815Z,99618.38
2023-04-22T08:06:44.160Z,99611.59
2023-04-22T08:09:12.019Z,99612.78
2023-04-22T08:11:40.587Z,99620.91
2023-04-22T08:14:08.385Z,99616.84
2023-04-22T08:16:36.215Z,99619.41
2023-04-22T08:19:06.303Z,99636.38
2023-04-22T08:21:34.215Z,99634.38
2023-04-22T08:24:02.030Z,99625.72
2023-04-22T08:26:29.879Z,99617.84
2023-04-22T08:28:57.686Z,99622.75
2023-04-22T08:31:25.559Z,99627.88
2023-04-22T08:33:54.035Z,99625.81
2023-04-22T08:36:25.862Z,99616.59
2023-04-22T08:38:55.182Z,99604.66
2023-04-22T08:41:24.505Z,99598.88
2023-04-22T08:43:54.057Z,99595.25
2023-04-22T08:46:24.534Z,99606.75
2023-04-22T08:48:52.676Z,99609.75
2023-04-22T08:51:20.888Z,99601.81
2023-04-22T08:53:50.847Z,99593.84
2023-04-22T08:56:18.715Z,99589.31
2023-04-22T08:58:47.420Z,99580.81
2023-04-22T09:01:18.663Z,99583.00
2023-04-22T09:03:47.329Z,99594.44
2023-04-22T09:06:15.781Z,99587.00
2023-04-22T09:08:44.941Z,99568.88
2023-04-22T09:11:14.183Z,99548.63
2023-04-22T09:13:43.315Z,99552.88
2023-04-22T09:16:11.930Z,99575.84
2023-04-22T09:18:43.535Z,99578.22
2023-04-22T09:21:11.539Z,99584.38
2023-04-22T09:23:47.875Z,99591.28
2023-04-22T09:26:18.497Z,99598.22
2023-04-22T09:28:51.811Z,99595.31
2023-04-22T09:31:20.681Z,99593.97
2023-04-22T09:33:50.735Z,99582.22
2023-04-22T09:36:22.864Z,99582.22
2023-04-22T09:38:55.438Z,99597.72
2023-04-22T09:41:32.178Z,99593.47
2023-04-22T09:44:01.482Z,99595.31
2023-04-22T09:46:30.822Z,99591.03
2023-04-22T09:49:00.535Z,99609.44
2023-04-22T09:51:28.942Z,99612.16
2023-04-22T09:54:01.947Z,99596.13
2023-04-22T09:56:47.962Z,99596.41
2023-04-22T09:59:20.745Z,99613.72
2023-04-22T10:01:48.809Z,99622.78
2023-04-22T10:04:21.694Z,99626.50
2023-04-22T10:06:49.978Z,99622.22
2023-04-22T10:09:20.148Z,99619.00
2023-04-22T10:11:51.725Z,99616.84
2023-04-22T10:14:19.654Z,99609.69
2023-04-22T10:16:49.214Z,99616.84
2023-04-22T10:19:18.821Z,99610.75
2023-04-22T10:21:48.902Z,99611.00
2023-04-22T10:24:18.331Z,99606.47
2023-04-22T10:26:56.791Z,99602.75
2023-04-22T10:29:26.623Z,99605.69
2023-04-22T10:31:58.309Z,99606.47
2023-04-22T10:34:26.572Z,99595.81
2023-04-22T10:36:56.140Z,99593.72
2023-04-22T10:39:24.095Z,99596.41
2023-04-22T10:42:05.895Z,99607.34
2023-04-22T10:44:51.222Z,99594.00
2023-04-22T10:47:30.301Z,99598.56
2023-04-22T10:50:15.926Z,99596.69
2023-04-22T10:52:47.804Z,99603.66
2023-04-22T10:55:16.254Z,99600.97
2023-04-22T10:57:48.455Z,99614.84
2023-04-22T11:00:52.469Z,99611.91
2023-04-22T11:03:29.249Z,99605.53
2023-04-22T11:06:17.144Z,99595.72
2023-04-22T11:08:50.118Z,99595.97
2023-04-22T11:11:20.020Z,99604.25
2023-04-22T11:13:52.534Z,99599.22
2023-04-22T11:16:23.393Z,99599.75
2023-04-22T11:18:51.700Z,99588.78
2023-04-22T11:21:21.660Z,99607.25
2023-04-22T11:23:52.454Z,99609.38
2023-04-22T11:26:20.433Z,99612.84
2023-04-22T11:28:50.243Z,99616.59
2023-04-22T11:31:18.198Z,99616.59
2023-04-22T11:33:47.795Z,99619.84
2023-04-22T11:36:19.467Z,99609.63
2023-04-22T11:38:56.100Z,99624.09
2023-04-22T11:41:24.677Z,99626.19
2023-04-22T11:43:54.904Z,99618.19
2023-04-22T11:46:30.711Z,99610.19
2023-04-22T11:49:13.138Z,99623.53
2023-04-22T11:51:54.269Z,99618.47
2023-04-22T11:54:32.872Z,99616.88
2023-04-22T11:57:03.812Z,99632.06
2023-04-22T11:59:33.053Z,99634.16
2023-04-22T12:02:00.913Z,99624.56
2023-04-22T12:04:28.882Z,99628.56
2023-04-22T12:06:56.627Z,99636.81
2023-04-22T12:09:25.708Z,99634.41
2023-04-22T12:11:54.195Z,99632.81
2023-04-22T12:14:22.034Z,99626.66
2023-04-22T12:16:51.855Z,99630.41
2023-04-22T12:19:27.439Z,99629.34
2023-04-22T12:21:56.972Z,99631.44
2023-04-22T12:24:29.357Z,99633.06
2023-04-22T12:26:58.648Z,99630.91
2023-04-22T12:29:33.473Z,99627.75
2023-04-22T12:32:02.710Z,99628.78
2023-04-22T12:34:30.540Z,99630.91
2023-04-22T12:37:00.317Z,99626.09
2023-04-22T12:39:28.116Z,99626.66
2023-04-22T12:41:55.878Z,99624.53
2023-04-22T12:44:25.177Z,99625.63
2023-04-22T12:46:53.544Z,99630.47
2023-04-22T12:49:23.173Z,99619.25
2023-04-22T12:51:51.293Z,99623.28
2023-04-22T12:54:20.707Z,99623.56
2023-04-22T12:56:49.427Z,99628.41
2023-04-22T12:59:17.203Z,99626.25
2023-04-22T13:01:45.115Z,99631.09
2023-04-22T13:04:13.199Z,99627.34
2023-04-22T13:06:44.276Z,99631.38
2023-04-22T13:09:12.952Z,99636.44
2023-04-22T13:11:41.257Z,99636.19
2023-04-22T13:14:09.058Z,99636.19
2023-04-22T13:16:37.021Z,99631.66
2023-04-22T13:19:04.961Z,99631.13
2023-04-22T13:21:32.983Z,99628.47
2023-04-22T13:24:02.275Z,99631.66
2023-04-22T13:26:30.202Z,99635.41
2023-04-22T13:28:58.058Z,99637.00
2023-04-22T13:31:25.871Z,99626.91
2023-04-22T13:33:54.257Z,99631.44
2023-04-22T13:36:22.176Z,99629.00
2023-04-22T13:38:51.097Z,99629.84
2023-04-22T13:41:20.460Z,99622.63
2023-04-22T13:43:51.810Z,99624.50
2023-04-22T13:46:19.777Z,99617.28
2023-04-22T13:48:48.031Z,99623.44
2023-04-22T13:51:16.202Z,99624.22
2023-04-22T13:53:43.997Z,99627.69
2023-04-22T13:56:13.233Z,99624.50
2023-04-22T13:58:43.425Z,99629.56
2023-04-22T14:01:11.384Z,99629.00
2023-04-22T14:03:39.782Z,99637.53
2023-04-22T14:06:08.125Z,99633.28
2023-04-22T14:08:35.950Z,99640.72
2023-04-22T14:11:04.722Z,99642.84
2023-04-22T14:13:32.518Z,99647.09
2023-04-22T14:16:03.124Z,99646.56
2023-04-22T14:18:31.628Z,99644.91
2023-04-22T14:20:59.441Z,99650.78
2023-04-22T14:23:27.241Z,99659.84
2023-04-22T14:25:56.268Z,99657.94
2023-04-22T14:28:24.273Z,99663.78
2023-04-22T14:30:52.139Z,99656.28
2023-04-22T14:33:24.028Z,99675.19
2023-04-22T14:35:52.143Z,99679.44
2023-04-22T14:38:21.845Z,99682.63
2023-04-22T14:40:50.922Z,99684.69
2023-04-22T14:43:19.890Z,99679.09
2023-04-22T14:45:48.287Z,99685.19
2023-04-22T14:48:16.623Z,99695.81
2023-04-22T14:50:45.881Z,99684.03
2023-04-22T14:53:13.691Z,99694.41
2023-04-22T14:55:42.037Z,99695.97
2023-04-22T14:58:09.969Z,99697.81
2023-04-22T15:00:37.901Z,99705.22
2023-04-22T15:03:06.282Z,99710.00
2023-04-22T15:05:34.290Z,99709.72
2023-04-22T15:08:03.480Z,99711.81
2023-04-22T15:10:31.320Z,99713.13
2023-04-22T15:13:00.257Z,99716.84
2023-04-22T15:15:28.099Z,99721.06
2023-04-22T15:17:56.579Z,99723.22
2023-04-22T15:20:24.498Z,99714.13
2023-04-22T15:22:52.301Z,99722.13
2023-04-22T15:25:22.306Z,99715.75
2023-04-22T15:27:50.119Z,99713.88
2023-04-22T15:30:17.938Z,99723.72
2023-04-22T15:32:46.143Z,99719.97
2023-04-22T15:35:14.232Z,99732.47
2023-04-22T15:37:42.171Z,99737.00
2023-04-22T15:40:10.912Z,99746.28
2023-04-22T15:42:40.091Z,99737.50
2023-04-22T15:45:08.960Z,99747.59
2023-04-22T15:47:37.871Z,99743.56
2023-04-22T15:50:08.704Z,99748.09
2023-04-22T15:52:38.203Z,99748.59
2023-04-22T15:55:07.511Z,99755.53
2023-04-22T15:57:35.604Z,99753.94
2023-04-22T16:00:12.057Z,99756.34
2023-04-22T16:02:41.721Z,99760.00
2023-04-22T16:05:10.759Z,99759.19
2023-04-22T16:07:38.616Z,99762.34
2023-04-22T16:10:07.415Z,99770.59
2023-04-22T16:12:35.702Z,99773.50
2023-04-22T16:15:05.557Z,99772.88
2023-04-22T16:17:33.444Z,99785.13
2023-04-22T16:20:02.072Z,99794.97
2023-04-22T16:22:29.946Z,99793.13
2023-04-22T16:24:57.739Z,99797.91
2023-04-22T16:27:26.250Z,99797.31
2023-04-22T16:29:54.048Z,99792.50
2023-04-22T16:32:23.226Z,99809.50
2023-04-22T16:34:51.608Z,99800.97
2023-04-22T16:37:19.383Z,99799.38
2023-04-22T16:39:47.418Z,99792.44
2023-04-22T16:42:15.564Z,99801.97
2023-04-22T16:44:43.334Z,99800.91
2023-04-22T16:47:11.138Z,99807.78
2023-04-22T16:49:41.083Z,99809.88
2023-04-22T16:52:09.116Z,99805.63
2023-04-22T16:54:36.903Z,99809.56
2023-04-22T16:57:05.329Z,99813.50
2023-04-22T16:59:33.658Z,99816.66
2023-04-22T17:02:01.941Z,99818.25
2023-04-22T17:04:30.895Z,99815.03
2023-04-22T17:07:00.629Z,99818.25
2023-04-22T17:09:28.562Z,99826.34
2023-04-22T17:11:58.035Z,99821.00
2023-04-22T17:14:26.339Z,99818.59
2023-04-22T17:16:54.465Z,99808.09
2023-04-22T17:19:23.132Z,99818.81
2023-04-22T17:21:51.161Z,99821.97
2023-04-22T17:24:22.270Z,99824.38
2023-04-22T17:26:51.322Z,99825.69
2023-04-22T17:29:21.634Z,99823.25
2023-04-22T17:31:49.980Z,99829.94
2023-04-22T17:34:18.724Z,99820.38
2023-04-22T17:36:46.817Z,99822.22
2023-04-22T17:39:15.434Z,99811.56
2023-04-22T17:41:46.118Z,99807.06
2023-04-22T17:44:14.093Z,99807.06
2023-04-22T17:46:42.388Z,99811.31
2023-04-22T17:49:11.427Z,99819.31
2023-04-22T17:51:39.679Z,99820.38
2023-04-22T17:54:07.850Z,99821.97
2023-04-22T17:56:37.158Z,99812.94
2023-04-22T17:59:06.716Z,99816.75
2023-04-22T18:01:34.983Z,99819.16
2023-04-22T18:04:03.759Z,99811.50
2023-04-22T18:06:32.473Z,99814.69
2023-04-22T18:09:00.807Z,99825.13
2023-04-22T18:11:29.620Z,99821.41
2023-04-22T18:13:57.797Z,99824.06
2023-04-22T18:16:27.472Z,99825.59
2023-04-22T18:18:55.350Z,99837.44
2023-04-22T18:21:23.468Z,99837.13
2023-04-22T18:23:53.295Z,99830.19
2023-04-22T18:26:21.886Z,99830.69
2023-04-22T18:28:50.103Z,99837.06
2023-04-22T18:31:18.438Z,99838.13
2023-04-22T18:33:48.680Z,99843.44
2023-04-22T18:36:16.798Z,99838.59
2023-04-22T18:38:44.913Z,99842.31
2023-04-22T18:41:15.335Z,99857.47
2023-04-22T18:43:43.418Z,99845.44
2023-04-22T18:46:11.588Z,99848.59
2023-04-22T18:48:40.395Z,99851.72
2023-04-22T18:51:09.956Z,99856.50
2023-04-22T18:53:38.061Z,99856.16
2023-04-22T18:56:07.039Z,99859.06
2023-04-22T18:58:35.165Z,99863.00
2023-04-22T19:01:03.321Z,99857.94
2023-04-22T19:03:32.378Z,99857.59
2023-04-22T19:06:00.637Z,99858.66
2023-04-22T19:08:30.091Z,99860.53
2023-04-22T19:10:58.880Z,99869.00
2023-04-22T19:13:29.588Z,99856.97
2023-04-22T19:16:00.631Z,99863.28
2023-04-22T19:18:28.874Z,99866.47
2023-04-22T19:20:57.161Z,99867.00
2023-04-22T19:23:25.902Z,99865.84
2023-04-22T19:25:55.689Z,99860.53
2023-04-22T19:28:23.589Z,99855.50
2023-04-22T19:30:52.677Z,99865.84
2023-04-22T19:33:20.974Z,99865.97
2023-04-22T19:35:49.379Z,99870.19
2023-04-22T19:38:19.808Z,99872.78
2023-04-22T19:40:48.693Z,99868.47
2023-04-22T19:43:19.834Z,99867.13
2023-04-22T19:45:48.191Z,99863.06
2023-04-22T19:48:17.259Z,99858.78
2023-04-22T19:50:46.540Z,99868.63
2023-04-22T19:53:15.406Z,99870.94
2023-04-22T19:55:44.628Z,99867.28
2023-04-22T19:58:13.390Z,99876.75
2023-04-22T20:00:43.717Z,99873.06
2023-04-22T20:03:14.631Z,99883.34
2023-04-22T20:05:44.489Z,99883.03
2023-04-22T20:08:15.137Z,99880.59
2023-04-22T20:10:44.519Z,99880.28
2023-04-22T20:13:13.107Z,99882.94
2023-04-22T20:15:43.441Z,99882.38
2023-04-22T20:18:12.286Z,99881.81
2023-04-22T20:20:45.080Z,99884.47
2023-04-22T20:23:15.780Z,99875.44
2023-04-22T20:25:45.889Z,99884.22
2023-04-22T20:28:14.361Z,99882.38
2023-04-22T20:30:44.674Z,99879.47
2023-04-22T20:33:16.723Z,99871.72
2023-04-22T20:35:48.073Z,99856.59
2023-04-22T20:38:20.040Z,99849.41
2023-04-22T20:40:48.866Z,99842.50
2023-04-22T20:43:17.274Z,99845.16
2023-04-22T20:45:46.891Z,99839.84
2023-04-22T20:48:14.847Z,99839.38
2023-04-22T20:50:44.320Z,99841.44
2023-04-22T20:53:12.954Z,99836.38
2023-04-22T20:55:41.385Z,99838.69
2023-04-22T20:58:09.676Z,99831.78
2023-04-22T21:00:37.929Z,99827.50
2023-04-22T21:03:10.425Z,99828.31
2023-04-22T21:05:42.253Z,99823.47
2023-04-22T21:08:24.736Z,99828.56
2023-04-22T21:10:54.168Z,99826.94
2023-04-22T21:13:22.846Z,99835.94
2023-04-22T21:15:57.653Z,99822.44
2023-04-22T21:18:29.044Z,99824.28
2023-04-22T21:20:58.213Z,99821.84
2023-04-22T21:23:27.819Z,99814.69
2023-04-22T21:25:57.329Z,99814.69
2023-04-22T21:28:26.054Z,99817.34
2023-04-22T21:30:54.831Z,99821.84
2023-04-22T21:33:25.262Z,99822.66
2023-04-22T21:35:55.711Z,99822.66
2023-04-22T21:38:23.788Z,99838.03
2023-04-22T21:40:52.416Z,99840.13
2023-04-22T21:43:21.254Z,99835.84
2023-04-22T21:45:49.344Z,99829.19
2023-04-22T21:48:17.403Z,99843.28
2023-04-22T21:50:45.913Z,99837.38
2023-04-22T21:53:15.591Z,99848.00
2023-04-22T21:55:43.508Z,99841.16
2023-04-22T21:58:12.267Z,99847.78
2023-04-22T22:00:40.640Z,99847.19
2023-04-22T22:03:08.990Z,99842.03
2023-04-22T22:05:38.268Z,99843.16
2023-04-22T22:08:07.085Z,99841.56
2023-04-22T22:10:36.986Z,99834.63
2023-04-22T22:13:05.715Z,99834.63
2023-04-22T22:15:33.990Z,99831.97
2023-04-22T22:18:02.150Z,99827.69
2023-04-22T22:20:31.380Z,99827.69
2023-04-22T22:23:00.804Z,99827.13
2023-04-22T22:25:28.993Z,99827.69
2023-04-22T22:27:59.027Z,99822.38
2023-04-22T22:30:27.222Z,99814.66
2023-04-22T22:32:55.374Z,99820.22
2023-04-22T22:35:24.043Z,99821.22
2023-04-22T22:37:52.146Z,99814.31
2023-04-22T22:40:20.262Z,99818.03
2023-04-22T22:42:48.787Z,99817.22
2023-04-22T22:45:18.298Z,99811.09
2023-04-22T22:47:47.087Z,99816.84
2023-04-22T22:50:15.964Z,99811.53
2023-04-22T22:52:44.203Z,99809.91
2023-04-22T22:55:12.167Z,99806.72
2023-04-22T22:57:40.846Z,99797.34
2023-04-22T23:00:11.930Z,99807.19
2023-04-22T23:02:42.479Z,99796.53
2023-04-22T23:05:11.182Z,99794.34
2023-04-22T23:07:39.214Z,99796.22
2023-04-22T23:10:09.298Z,99790.09
2023-04-22T23:12:37.454Z,99796.44
2023-04-22T23:15:06.604Z,99793.25
2023-04-22T23:17:35.307Z,99794.03
2023-04-22T23:20:07.400Z,99789.53
2023-04-22T23:22:37.727Z,99788.94
2023-04-22T23:25:06.984Z,99793.44
2023-04-22T23:27:36.089Z,99789.44
2023-04-22T23:30:05.657Z,99790.50
2023-04-22T23:32:36.513Z,99785.19
2023-04-22T23:35:08.445Z,99781.69
2023-04-22T23:37:38.964Z,99783.53
2023-04-22T23:40:08.980Z,99777.66
2023-04-22T23:42:36.984Z,99773.63
2023-04-22T23:45:05.602Z,99770.16
2023-04-22T23:47:34.698Z,99766.72
2023-04-22T23:50:03.308Z,99752.53
2023-04-22T23:52:32.744Z,99757.94
2023-04-22T23:55:01.915Z,99753.69
2023-04-22T23:57:30.592Z,99754.72
2023-04-22T23:59:59.019Z,99750.47
